Atlantic - Newfoundland: Past 24 Hour Conditions

 

Blanc-Sablon Airport

10:00 AM AST 01 October 2014
This table is a summary of hourly weather conditions for the past 24 hours.
Date / Time
(AST)
Wind(knots) Conditions Visibility(km) Pressure(kPa) Air tempC) Relative humidity(%) Dew pointC)
01 October 2014
10:00 W 5 Mainly Sunny 24 102.0 5 45 -6
9:00 WNW 11 Mainly Sunny 24 102.0 4 48 -6
8:00 NNW 7 Mainly Sunny 24 101.9 3 59 -4
7:00 NNW 7 Mainly Sunny 24 101.9 2 67 -3
6:00 NW 5 Sunny 24 101.8 2 75 -2
5:00 NW 10 Clear 24 101.6 4 67 -2
4:00 WNW 7 Mainly Clear 24 101.5 3 80 0
3:00 W 10 Partly Cloudy 24 101.4 5 73 1
2:00 W 10 Mainly Clear 24 101.4 6 75 2
1:00 W 8 Mainly Clear 24 101.3 6 82 3
0:00 W 9 Mostly Cloudy 24 101.3 7 79 4
30 September 2014
23:00 W 16 Cloudy 24 101.3 7 79 4
22:00 W 18 gust 25 Mostly Cloudy 24 101.3 8 79 4
21:00 WSW 16 gust 25 Mostly Cloudy 24 101.3 8 80 5
20:00 WSW 23 gust 29 Mostly Cloudy 24 101.4 8 80 4
19:00 WSW 28 gust 34 Mostly Cloudy 24 101.4 7 80 4
18:00 WSW 24 gust 30 Partly Cloudy 24 101.4 7 80 4
17:00 SW 26 gust 33 Mostly Cloudy 24 101.5 7 75 3
16:00 SW 23 gust 31 Mostly Cloudy 24 101.5 8 71 3
15:00 SW 23 gust 32 Mostly Cloudy 24 101.6 8 65 2
14:00 SW 22 gust 31 Mostly Cloudy 24 101.7 9 64 2
13:00 WSW 25 Partly Cloudy 24 101.8 9 52 0
12:00 WSW 22 gust 28 Partly Cloudy 24 101.9 10 46 -1
11:00 WSW 20 gust 27 Mainly Sunny 24 102.0 10 49 -1
10:00 WSW 18 Mainly Sunny 24 102.1 9 54 0
 
Map of Atlantic - Newfoundland marine weather areas Southwestern Grand Banks - 44138 Banquereau - 44139 Tail of the Bank - 44140 Nickerson Bank - 44251 Northeast Burgeo Bank - 44255 Blanc-Sablon Airport Cap Whittle Chevery Natashquan Airport Heath Point Miscou Island Grand Étang Ingonish Beach North Mountain St.Paul Island J.A. Douglas McCurdy Sydney Airport Charlottetown Airport East Point North Cape Argentia Bonavista Burgeo Cape Race Corner Brook Daniel's Harbour Englee Ferolle Point La Scie Port aux Basques Rocky Harbour Sagona Island St. Anthony Airport St. John's Int'l Airport St. Lawrence Stephenville Airport Twillingate Winterland Wreckhouse Cartwright Airport Mary's Harbour Grates Cove Pool's Island Marticot Island Long Pond Îles de la Madeleine Airport
Legend: buoyBuoy land stationLand Station